createdAt,value
2023-05-14T14:57:20.747Z,4.90
2023-05-14T14:59:48.455Z,4.30
2023-05-14T15:02:16.115Z,4.60
2023-05-14T15:04:43.823Z,3.50
2023-05-14T15:07:11.368Z,5.60
2023-05-14T15:09:38.767Z,4.50
2023-05-14T15:12:06.623Z,3.90
2023-05-14T15:14:34.128Z,2.20
2023-05-14T15:17:01.585Z,3.50
2023-05-14T15:19:29.782Z,3.00
2023-05-14T15:21:57.216Z,43.50
2023-05-14T15:24:26.446Z,22.50
2023-05-14T15:26:53.966Z,29.50
2023-05-14T15:29:21.404Z,12.10
2023-05-14T15:31:48.818Z,18.60
2023-05-14T15:34:16.414Z,31.40
2023-05-14T15:36:43.955Z,29.30
2023-05-14T15:39:11.372Z,8.80
2023-05-14T15:41:38.909Z,5.70
2023-05-14T15:44:06.405Z,4.90
2023-05-14T15:46:33.866Z,6.40
2023-05-14T15:49:02.372Z,6.60
2023-05-14T15:51:29.833Z,4.50
2023-05-14T15:53:57.571Z,3.70
2023-05-14T15:56:25.073Z,5.20
2023-05-14T15:58:52.407Z,5.90
2023-05-14T16:01:19.832Z,4.70
2023-05-14T16:03:47.789Z,8.40
2023-05-14T16:06:15.645Z,4.50
2023-05-14T16:08:43.077Z,4.60
2023-05-14T16:11:10.460Z,4.40
2023-05-14T16:13:39.374Z,4.00
2023-05-14T16:16:06.677Z,4.30
2023-05-14T16:18:34.211Z,3.50
2023-05-14T16:21:02.161Z,3.30
2023-05-14T16:23:29.614Z,3.40
2023-05-14T16:25:56.903Z,3.60
2023-05-14T16:28:24.509Z,3.30
2023-05-14T16:30:51.842Z,2.90
2023-05-14T16:33:19.209Z,3.00
2023-05-14T16:35:46.770Z,2.60
2023-05-14T16:38:14.131Z,3.10
2023-05-14T16:40:42.016Z,3.00
2023-05-14T16:43:09.369Z,2.70
2023-05-14T16:45:37.665Z,2.90
2023-05-14T16:48:05.208Z,2.70
2023-05-14T16:50:32.977Z,2.90
2023-05-14T16:53:00.394Z,2.90
2023-05-14T16:55:27.581Z,2.60
2023-05-14T16:57:54.904Z,2.80
2023-05-14T17:00:22.478Z,2.60
2023-05-14T17:02:51.334Z,2.90
2023-05-14T17:05:18.694Z,2.90
2023-05-14T17:07:46.022Z,3.30
2023-05-14T17:10:13.149Z,6.10
2023-05-14T17:12:40.495Z,3.70
2023-05-14T17:15:09.513Z,2.60
2023-05-14T17:17:36.757Z,3.30
2023-05-14T17:20:06.176Z,3.20
2023-05-14T17:22:33.655Z,2.60
2023-05-14T17:25:01.019Z,3.40
2023-05-14T17:27:29.917Z,3.30
2023-05-14T17:29:57.550Z,3.00
2023-05-14T17:32:29.755Z,2.60
2023-05-14T17:34:57.337Z,2.80
2023-05-14T17:37:24.940Z,3.40
2023-05-14T17:39:52.726Z,3.00
2023-05-14T17:42:20.259Z,2.90
2023-05-14T17:44:47.704Z,2.50
2023-05-14T17:47:15.185Z,2.70
2023-05-14T17:49:42.702Z,3.20
2023-05-14T17:52:10.188Z,2.90
2023-05-14T17:54:37.581Z,2.80
2023-05-14T17:57:05.221Z,3.10
2023-05-14T17:59:33.333Z,2.90
2023-05-14T18:02:01.246Z,3.40
2023-05-14T18:04:28.879Z,2.60
2023-05-14T18:06:57.068Z,3.00
2023-05-14T18:09:24.950Z,3.70
2023-05-14T18:11:53.064Z,3.70
2023-05-14T18:14:21.604Z,4.10
2023-05-14T18:16:48.921Z,4.80
2023-05-14T18:19:16.547Z,4.40
2023-05-14T18:21:46.696Z,4.40
2023-05-14T18:24:14.532Z,5.10
2023-05-14T18:26:44.280Z,3.70
2023-05-14T18:29:12.023Z,4.20
2023-05-14T18:31:39.355Z,4.20
2023-05-14T18:34:06.714Z,4.20
2023-05-14T18:36:34.263Z,4.00
2023-05-14T18:39:01.533Z,3.60
2023-05-14T18:41:29.100Z,4.30
2023-05-14T18:43:58.146Z,3.60
2023-05-14T18:46:26.284Z,3.40
2023-05-14T18:48:53.958Z,3.50
2023-05-14T18:51:21.690Z,3.10
2023-05-14T18:53:48.964Z,3.30
2023-05-14T18:56:18.545Z,3.10
2023-05-14T18:58:45.868Z,2.80
2023-05-14T19:01:13.366Z,3.10
2023-05-14T19:03:42.949Z,3.20
2023-05-14T19:06:10.567Z,3.00
2023-05-14T19:08:39.626Z,3.50
2023-05-14T19:11:07.049Z,2.90
2023-05-14T19:13:34.622Z,2.90
2023-05-14T19:16:02.102Z,3.40
2023-05-14T19:18:29.536Z,4.20
2023-05-14T19:20:57.310Z,4.00
2023-05-14T19:23:24.913Z,3.60
2023-05-14T19:25:52.297Z,3.80
2023-05-14T19:28:20.057Z,3.40
2023-05-14T19:30:48.026Z,3.40
2023-05-14T19:33:15.570Z,2.90
2023-05-14T19:35:42.972Z,2.60
2023-05-14T19:38:11.038Z,3.90
2023-05-14T19:40:38.359Z,3.50
2023-05-14T19:43:06.059Z,3.10
2023-05-14T19:45:39.407Z,3.60
2023-05-14T19:48:07.020Z,2.90
2023-05-14T19:50:36.994Z,5.50
2023-05-14T19:53:04.786Z,4.00
2023-05-14T19:55:32.194Z,4.80
2023-05-14T19:57:59.693Z,3.50
2023-05-14T20:00:27.463Z,4.90
2023-05-14T20:02:55.655Z,3.60
2023-05-14T20:05:23.203Z,4.10
2023-05-14T20:07:50.418Z,5.70
2023-05-14T20:10:17.824Z,3.70
2023-05-14T20:12:45.224Z,3.70
2023-05-14T20:15:12.620Z,4.40
2023-05-14T20:17:40.184Z,4.00
2023-05-14T20:20:09.996Z,5.30
2023-05-14T20:22:38.454Z,3.90
2023-05-14T20:25:07.548Z,3.80
2023-05-14T20:27:35.039Z,4.40
2023-05-14T20:30:02.489Z,4.00
2023-05-14T20:32:30.004Z,4.00
2023-05-14T20:35:02.247Z,4.80
2023-05-14T20:39:57.895Z,4.10
2023-05-14T20:42:25.442Z,3.90
2023-05-14T20:44:53.372Z,4.00
2023-05-14T20:47:23.500Z,4.50
2023-05-14T20:49:51.339Z,4.10
2023-05-14T20:52:18.906Z,4.30
2023-05-14T20:54:46.437Z,3.90
2023-05-14T20:57:15.608Z,4.10
2023-05-14T20:59:43.043Z,4.70
2023-05-14T21:02:10.418Z,4.00
2023-05-14T21:04:38.103Z,4.00
2023-05-14T21:07:05.651Z,4.80
2023-05-14T21:09:32.976Z,4.50
2023-05-14T21:12:00.519Z,4.60
2023-05-14T21:14:27.913Z,3.50
2023-05-14T21:16:55.441Z,4.60
2023-05-14T21:19:23.526Z,4.70
2023-05-14T21:21:51.007Z,4.90
2023-05-14T21:24:19.301Z,4.70
2023-05-14T21:26:46.938Z,4.70
2023-05-14T21:29:14.305Z,5.10
2023-05-14T21:31:41.837Z,4.80
2023-05-14T21:34:09.409Z,4.40
2023-05-14T21:36:36.921Z,4.00
2023-05-14T21:39:04.378Z,4.80
2023-05-14T21:41:32.003Z,5.00
2023-05-14T21:43:59.248Z,4.60
2023-05-14T21:46:26.608Z,9.90
2023-05-14T21:48:54.149Z,20.40
2023-05-14T21:51:21.700Z,13.30
2023-05-14T21:53:49.036Z,10.40
2023-05-14T21:56:16.688Z,13.50
2023-05-14T21:58:44.514Z,14.90
2023-05-14T22:01:12.058Z,14.10
2023-05-14T22:03:39.550Z,12.30
2023-05-14T22:06:07.011Z,12.10
2023-05-14T22:08:34.458Z,10.00
2023-05-14T22:11:01.932Z,11.40
2023-05-14T22:13:29.369Z,12.80
2023-05-14T22:16:11.730Z,12.90
2023-05-14T22:18:40.325Z,13.40
2023-05-14T22:21:07.594Z,11.60
2023-05-14T22:23:34.932Z,11.00
2023-05-14T22:26:02.348Z,8.90
2023-05-14T22:28:29.868Z,9.40
2023-05-14T22:30:59.816Z,10.00
2023-05-14T22:33:27.456Z,8.80
2023-05-14T22:35:54.838Z,8.20
2023-05-14T22:38:22.152Z,7.20
2023-05-14T22:40:49.373Z,7.00
2023-05-14T22:43:16.705Z,7.50
2023-05-14T22:45:44.160Z,7.90
2023-05-14T22:48:12.131Z,8.50
2023-05-14T22:50:39.469Z,9.30
2023-05-14T22:53:06.975Z,9.10
2023-05-14T22:55:34.578Z,8.80
2023-05-14T22:58:02.074Z,6.90
2023-05-14T23:00:29.613Z,5.60
2023-05-14T23:02:57.095Z,7.20
2023-05-14T23:05:24.572Z,7.70
2023-05-14T23:07:52.969Z,6.50
2023-05-14T23:10:20.300Z,6.40
2023-05-14T23:12:47.551Z,6.40
2023-05-14T23:15:14.848Z,4.40
2023-05-14T23:17:42.226Z,4.80
2023-05-14T23:20:12.838Z,5.70
2023-05-14T23:22:40.562Z,5.10
2023-05-14T23:25:08.324Z,4.60
2023-05-14T23:27:35.810Z,4.70
2023-05-14T23:30:04.256Z,5.00
2023-05-14T23:32:31.579Z,4.30
2023-05-14T23:34:59.135Z,4.40
2023-05-14T23:37:26.376Z,5.50
2023-05-14T23:39:53.914Z,4.40
2023-05-14T23:42:21.515Z,4.30
2023-05-14T23:44:48.980Z,4.80
2023-05-14T23:47:16.329Z,5.30
2023-05-14T23:49:43.723Z,4.40
2023-05-14T23:52:11.579Z,4.80
2023-05-14T23:54:39.426Z,4.70
2023-05-14T23:57:06.693Z,4.50
2023-05-14T23:59:34.163Z,4.30
